Time;durP1;ratioP1;P1;durP2;ratioP2;P2;SDS_P1;SDS_P2;PMS_P1;PMS_P2;Temp;Humidity;BMP_temperature;BMP_pressure;BME280_temperature;BME280_humidity;BME280_pressure;Samples;Min_cycle;Max_cycle;Signal;HPM_P1;HPM_P2
2022/08/07 00:00:26;;;;;;;0.95;0.40;;;;;;;;;;5040037;28;20049;-77
2022/08/07 00:02:54;;;;;;;1.17;0.40;;;;;;;;;;5024057;28;20033;-78
2022/08/07 00:05:20;;;;;;;1.75;0.70;;;;;;;;;;5040181;28;20400;-77
2022/08/07 00:07:46;;;;;;;1.50;0.40;;;;;;;;;;5040030;28;20044;-78
2022/08/07 00:10:11;;;;;;;1.25;0.40;;;;;;;;;;5040219;28;20036;-77
2022/08/07 00:12:37;;;;;;;2.30;0.50;;;;;;;;;;5023363;28;20123;-77
2022/08/07 00:15:02;;;;;;;0.82;0.40;;;;;;;;;;5056675;28;20474;-77
2022/08/07 00:17:28;;;;;;;1.25;0.50;;;;;;;;;;5040241;28;20037;-78
2022/08/07 00:19:53;;;;;;;1.10;0.30;;;;;;;;;;5039372;28;20403;-78
2022/08/07 00:22:19;;;;;;;1.60;0.50;;;;;;;;;;5023027;28;20399;-77
2022/08/07 00:24:44;;;;;;;1.10;0.57;;;;;;;;;;5023245;28;20410;-78
2022/08/07 00:27:10;;;;;;;2.22;0.40;;;;;;;;;;5039692;28;20113;-78
2022/08/07 00:29:35;;;;;;;2.17;0.60;;;;;;;;;;5023551;28;20411;-77
2022/08/07 00:32:02;;;;;;;1.10;0.43;;;;;;;;;;5023156;28;20041;-78
2022/08/07 00:34:27;;;;;;;2.35;1.15;;;;;;;;;;5056314;28;20094;-78
2022/08/07 00:36:53;;;;;;;3.25;0.50;;;;;;;;;;5023471;28;20072;-77
2022/08/07 00:39:18;;;;;;;1.25;0.40;;;;;;;;;;5039544;28;20052;-77
2022/08/07 00:41:51;;;;;;;2.05;0.35;;;;;;;;;;5023469;28;20118;-77
2022/08/07 00:44:17;;;;;;;1.15;0.47;;;;;;;;;;5020487;28;20526;-77
2022/08/07 00:46:42;;;;;;;1.55;0.38;;;;;;;;;;5036366;28;20075;-77
2022/08/07 00:49:08;;;;;;;1.60;0.60;;;;;;;;;;5020294;28;20407;-77
2022/08/07 00:51:34;;;;;;;1.13;0.60;;;;;;;;;;5036270;28;20116;-77
2022/08/07 00:53:59;;;;;;;0.93;0.40;;;;;;;;;;5036520;28;20033;-77
2022/08/07 00:56:25;;;;;;;1.55;0.40;;;;;;;;;;5036163;28;20135;-77
2022/08/07 00:58:50;;;;;;;1.45;0.40;;;;;;;;;;5019897;28;20064;-77
2022/08/07 01:01:16;;;;;;;1.35;0.60;;;;;;;;;;5019678;28;20071;-77
2022/08/07 01:03:42;;;;;;;1.02;0.30;;;;;;;;;;5036324;28;20033;-77
2022/08/07 01:06:08;;;;;;;1.55;0.50;;;;;;;;;;5019416;28;20084;-77
2022/08/07 01:08:33;;;;;;;1.70;0.47;;;;;;;;;;5036374;28;20450;-77
2022/08/07 01:10:59;;;;;;;2.35;1.00;;;;;;;;;;5036138;28;20120;-77
2022/08/07 01:13:24;;;;;;;0.65;0.30;;;;;;;;;;5036053;28;20773;-77
2022/08/07 01:15:50;;;;;;;2.83;0.68;;;;;;;;;;5036008;28;20044;-77
2022/08/07 01:18:15;;;;;;;1.75;0.40;;;;;;;;;;5036068;28;20410;-77
2022/08/07 01:20:49;;;;;;;1.00;0.30;;;;;;;;;;5018656;28;20044;-77
2022/08/07 01:23:14;;;;;;;2.25;0.63;;;;;;;;;;5037006;28;20533;-77
2022/08/07 01:25:40;;;;;;;2.70;0.82;;;;;;;;;;5035751;28;20045;-77
2022/08/07 01:28:05;;;;;;;1.02;0.50;;;;;;;;;;5035751;28;20391;-77
2022/08/07 01:30:30;;;;;;;0.90;0.43;;;;;;;;;;5018732;28;20438;-77
2022/08/07 01:32:56;;;;;;;1.38;0.77;;;;;;;;;;5035744;28;20442;-77
2022/08/07 01:35:21;;;;;;;2.28;0.90;;;;;;;;;;5035628;28;20380;-77
2022/08/07 01:37:47;;;;;;;1.45;0.60;;;;;;;;;;5018305;28;20103;-77
2022/08/07 01:40:12;;;;;;;1.30;0.57;;;;;;;;;;5036081;28;20033;-77
2022/08/07 01:42:38;;;;;;;0.98;0.40;;;;;;;;;;5018912;28;20048;-77
2022/08/07 01:45:03;;;;;;;1.38;0.30;;;;;;;;;;5035265;28;20414;-77
2022/08/07 01:47:29;;;;;;;2.08;0.63;;;;;;;;;;5019037;28;20056;-77
2022/08/07 01:49:54;;;;;;;1.35;0.38;;;;;;;;;;5035208;28;20472;-77
2022/08/07 01:52:20;;;;;;;1.50;0.65;;;;;;;;;;5035042;28;20033;-76
2022/08/07 01:54:45;;;;;;;1.20;0.50;;;;;;;;;;5018599;28;20187;-76
2022/08/07 01:57:15;;;;;;;1.40;0.60;;;;;;;;;;5035414;28;20462;-77
2022/08/07 02:00:05;;;;;;;1.90;0.50;;;;;;;;;;5034826;28;20079;-77
2022/08/07 02:02:34;;;;;;;2.13;0.73;;;;;;;;;;5019958;28;20115;-77
2022/08/07 02:05:06;;;;;;;1.52;0.60;;;;;;;;;;5018792;28;20108;-77
2022/08/07 02:07:35;;;;;;;1.38;0.40;;;;;;;;;;5018724;28;20063;-77
2022/08/07 02:10:00;;;;;;;2.50;0.40;;;;;;;;;;5035144;28;20083;-77
2022/08/07 02:12:27;;;;;;;2.05;0.70;;;;;;;;;;5018456;28;20044;-77
2022/08/07 02:14:54;;;;;;;0.70;0.30;;;;;;;;;;5034760;28;20037;-77
2022/08/07 02:17:20;;;;;;;1.83;0.57;;;;;;;;;;5035160;28;20040;-77
2022/08/07 02:19:47;;;;;;;2.78;0.80;;;;;;;;;;5034694;28;20044;-77
2022/08/07 02:22:13;;;;;;;1.13;0.32;;;;;;;;;;5034740;28;20037;-77
2022/08/07 02:24:42;;;;;;;2.42;0.60;;;;;;;;;;5002128;28;20407;-77
2022/08/07 02:27:08;;;;;;;1.45;0.43;;;;;;;;;;5018075;28;20033;-77
2022/08/07 02:29:33;;;;;;;2.90;0.60;;;;;;;;;;5001371;28;20079;-77
2022/08/07 02:31:59;;;;;;;1.50;0.40;;;;;;;;;;5018402;28;20032;-76
2022/08/07 02:34:25;;;;;;;1.83;0.50;;;;;;;;;;5034652;28;20037;-77
2022/08/07 02:36:51;;;;;;;1.23;0.50;;;;;;;;;;5034482;28;20041;-77
2022/08/07 02:39:16;;;;;;;1.92;0.47;;;;;;;;;;5051668;28;20128;-76
2022/08/07 02:41:43;;;;;;;2.95;0.88;;;;;;;;;;5034405;28;20033;-76
2022/08/07 02:44:08;;;;;;;1.20;0.50;;;;;;;;;;5017863;28;20037;-76
2022/08/07 02:46:34;;;;;;;1.60;0.70;;;;;;;;;;5034332;28;20431;-77
2022/08/07 02:49:00;;;;;;;1.70;0.57;;;;;;;;;;5051065;28;20033;-77
2022/08/07 02:51:25;;;;;;;1.60;0.70;;;;;;;;;;5050193;28;20094;-77
2022/08/07 02:53:53;;;;;;;3.20;0.75;;;;;;;;;;5034317;28;20041;-77
2022/08/07 02:56:19;;;;;;;1.58;0.70;;;;;;;;;;5018139;28;20495;-77
2022/08/07 02:58:45;;;;;;;2.30;0.60;;;;;;;;;;5017854;28;20060;-77
2022/08/07 03:01:10;;;;;;;1.38;0.50;;;;;;;;;;5033900;28;20033;-77
2022/08/07 03:03:36;;;;;;;1.63;0.50;;;;;;;;;;5034220;28;20045;-77
2022/08/07 03:06:01;;;;;;;1.40;0.60;;;;;;;;;;5033538;28;20577;-77
2022/08/07 03:08:26;;;;;;;1.70;0.50;;;;;;;;;;5033825;28;20037;-77
2022/08/07 03:10:52;;;;;;;1.20;0.80;;;;;;;;;;5033876;28;20044;-77
2022/08/07 03:13:17;;;;;;;1.75;0.60;;;;;;;;;;5017133;28;20067;-77
2022/08/07 03:15:43;;;;;;;2.00;0.70;;;;;;;;;;5017491;28;20086;-77
2022/08/07 03:18:08;;;;;;;1.77;0.60;;;;;;;;;;5017435;28;20037;-77
2022/08/07 03:20:34;;;;;;;1.35;0.75;;;;;;;;;;5016697;28;20090;-77
2022/08/07 03:23:00;;;;;;;1.77;0.70;;;;;;;;;;5034218;28;20111;-77
2022/08/07 03:25:26;;;;;;;2.50;1.20;;;;;;;;;;5017452;28;20063;-77
2022/08/07 03:27:51;;;;;;;1.55;0.98;;;;;;;;;;5033493;28;20037;-77
2022/08/07 03:30:17;;;;;;;1.65;0.63;;;;;;;;;;5017745;28;20041;-77
2022/08/07 03:32:43;;;;;;;1.42;0.70;;;;;;;;;;5033732;28;20033;-76
2022/08/07 03:35:13;;;;;;;2.00;0.80;;;;;;;;;;5017223;28;20056;-77
2022/08/07 03:37:39;;;;;;;1.35;0.60;;;;;;;;;;5017778;28;20120;-77
2022/08/07 03:40:05;;;;;;;1.42;0.77;;;;;;;;;;5017439;28;20028;-76
2022/08/07 03:42:32;;;;;;;3.28;1.00;;;;;;;;;;5033498;28;20500;-77
2022/08/07 03:44:57;;;;;;;1.45;0.90;;;;;;;;;;5001000;28;20029;-77
2022/08/07 03:47:23;;;;;;;2.42;1.08;;;;;;;;;;5017461;28;20041;-77
2022/08/07 03:49:48;;;;;;;2.67;1.05;;;;;;;;;;5016752;28;20036;-78
2022/08/07 03:52:14;;;;;;;3.40;1.30;;;;;;;;;;5016760;28;20041;-76
2022/08/07 03:54:39;;;;;;;1.98;1.00;;;;;;;;;;5033450;28;20082;-76
2022/08/07 03:57:05;;;;;;;2.50;1.27;;;;;;;;;;5016648;28;20422;-76
2022/08/07 03:59:31;;;;;;;1.10;0.77;;;;;;;;;;5000838;28;20059;-77
2022/08/07 04:01:57;;;;;;;2.65;1.00;;;;;;;;;;5017074;28;20045;-76
2022/08/07 04:04:22;;;;;;;4.05;1.40;;;;;;;;;;5033183;28;20503;-76
2022/08/07 04:06:48;;;;;;;2.03;0.90;;;;;;;;;;5033289;28;20052;-77
2022/08/07 04:09:13;;;;;;;1.85;0.93;;;;;;;;;;5033664;28;20044;-76
2022/08/07 04:11:39;;;;;;;2.30;1.02;;;;;;;;;;5016519;28;20499;-77
2022/08/07 04:14:05;;;;;;;3.42;0.90;;;;;;;;;;5033775;28;20037;-77
2022/08/07 04:16:30;;;;;;;1.90;0.90;;;;;;;;;;5000408;28;20141;-77
2022/08/07 04:18:56;;;;;;;1.88;0.80;;;;;;;;;;5034489;28;20045;-77
2022/08/07 04:21:22;;;;;;;2.80;0.90;;;;;;;;;;5036725;28;20048;-77
2022/08/07 04:23:48;;;;;;;2.25;0.90;;;;;;;;;;5037388;28;20048;-76
2022/08/07 04:26:14;;;;;;;1.70;0.90;;;;;;;;;;5020467;28;20048;-78
2022/08/07 04:28:40;;;;;;;1.77;1.05;;;;;;;;;;5037435;28;20044;-77
2022/08/07 04:31:05;;;;;;;2.22;0.70;;;;;;;;;;5037034;28;20045;-77
2022/08/07 04:33:31;;;;;;;2.13;0.77;;;;;;;;;;5036897;28;20065;-77
2022/08/07 04:35:57;;;;;;;2.22;1.02;;;;;;;;;;5020467;28;20605;-78
2022/08/07 04:38:23;;;;;;;1.85;0.70;;;;;;;;;;5036746;28;20036;-78
2022/08/07 04:40:49;;;;;;;2.50;0.75;;;;;;;;;;5020045;28;20033;-77
2022/08/07 04:43:15;;;;;;;3.42;1.20;;;;;;;;;;5036655;28;20037;-77
2022/08/07 04:46:08;;;;;;;1.85;0.95;;;;;;;;;;5020438;28;20483;-77
2022/08/07 04:49:13;;;;;;;1.70;0.98;;;;;;;;;;5037299;28;20495;-77
2022/08/07 04:52:00;;;;;;;3.40;1.10;;;;;;;;;;5035634;28;20095;-76
2022/08/07 04:55:10;;;;;;;1.65;0.85;;;;;;;;;;5052764;28;20037;-77
2022/08/07 04:57:48;;;;;;;2.92;0.85;;;;;;;;;;5053952;28;20091;-77
2022/08/07 05:00:19;;;;;;;2.38;0.80;;;;;;;;;;5004116;28;20514;-77
2022/08/07 05:02:47;;;;;;;3.40;1.02;;;;;;;;;;5020273;28;20064;-77
2022/08/07 05:05:21;;;;;;;1.23;0.70;;;;;;;;;;5036017;28;20067;-77
2022/08/07 05:08:05;;;;;;;3.63;0.90;;;;;;;;;;5020066;28;20036;-77
2022/08/07 05:10:39;;;;;;;2.17;0.70;;;;;;;;;;5037231;28;20048;-77
2022/08/07 05:13:29;;;;;;;1.17;0.65;;;;;;;;;;5036351;28;20487;-79
2022/08/07 05:15:55;;;;;;;1.50;0.80;;;;;;;;;;5021547;28;20037;-79
2022/08/07 05:18:32;;;;;;;1.67;0.70;;;;;;;;;;5025142;28;20046;-80
2022/08/07 05:21:02;;;;;;;3.95;1.50;;;;;;;;;;5029458;28;20060;-81
2022/08/07 05:23:31;;;;;;;11.73;1.58;;;;;;;;;;5036158;28;20043;-80
2022/08/07 05:25:57;;;;;;;12.90;1.63;;;;;;;;;;5036037;28;20101;-80
2022/08/07 05:28:22;;;;;;;17.42;1.95;;;;;;;;;;5003043;28;20116;-79
2022/08/07 05:30:48;;;;;;;13.20;2.22;;;;;;;;;;5018608;28;20036;-79
2022/08/07 05:33:13;;;;;;;13.98;1.95;;;;;;;;;;5019013;28;20044;-80
2022/08/07 05:35:39;;;;;;;11.90;2.35;;;;;;;;;;5017842;28;20408;-80
2022/08/07 05:38:25;;;;;;;12.43;2.20;;;;;;;;;;5030394;28;20088;-81
2022/08/07 05:41:10;;;;;;;8.32;1.55;;;;;;;;;;5018176;28;20041;-81
2022/08/07 05:43:57;;;;;;;9.32;1.75;;;;;;;;;;5018403;28;20034;-82
2022/08/07 05:46:42;;;;;;;4.78;1.35;;;;;;;;;;5017614;28;20037;-81
2022/08/07 05:49:28;;;;;;;3.55;1.00;;;;;;;;;;5030494;28;20034;-81
2022/08/07 05:52:14;;;;;;;3.78;1.23;;;;;;;;;;5029912;28;20152;-81
2022/08/07 05:55:00;;;;;;;5.18;1.10;;;;;;;;;;5028637;28;20420;-81
2022/08/07 05:57:46;;;;;;;2.95;1.08;;;;;;;;;;5029084;28;20115;-81
2022/08/07 06:00:32;;;;;;;5.00;1.10;;;;;;;;;;5029980;28;20065;-81
2022/08/07 06:03:19;;;;;;;3.58;1.00;;;;;;;;;;5017060;28;20121;-81
2022/08/07 06:06:05;;;;;;;2.25;0.80;;;;;;;;;;5029256;28;20049;-81
2022/08/07 06:08:51;;;;;;;3.30;0.70;;;;;;;;;;5031620;28;20088;-81
2022/08/07 06:11:37;;;;;;;4.28;1.00;;;;;;;;;;5017990;28;20067;-81
2022/08/07 06:14:22;;;;;;;4.10;0.93;;;;;;;;;;5016821;28;20044;-81
2022/08/07 06:17:11;;;;;;;2.53;0.90;;;;;;;;;;5030255;28;20045;-81
2022/08/07 06:19:57;;;;;;;4.47;0.95;;;;;;;;;;5029614;28;20038;-82
2022/08/07 06:22:42;;;;;;;3.28;0.70;;;;;;;;;;5029968;28;20049;-81
2022/08/07 06:25:28;;;;;;;1.77;0.95;;;;;;;;;;5029845;28;20139;-81
2022/08/07 06:28:14;;;;;;;2.50;0.82;;;;;;;;;;5029788;28;20049;-81
2022/08/07 06:30:59;;;;;;;1.40;0.90;;;;;;;;;;5029795;28;20052;-81
2022/08/07 06:33:46;;;;;;;1.60;0.77;;;;;;;;;;5029728;28;20037;-81
2022/08/07 06:36:31;;;;;;;1.77;0.63;;;;;;;;;;5016778;28;20042;-81
2022/08/07 06:39:17;;;;;;;2.17;0.70;;;;;;;;;;5029961;28;20044;-81
2022/08/07 06:42:14;;;;;;;0.93;0.50;;;;;;;;;;5028725;28;20395;-81
2022/08/07 06:45:00;;;;;;;2.65;0.82;;;;;;;;;;5030508;28;20103;-81
2022/08/07 06:47:46;;;;;;;3.17;0.77;;;;;;;;;;5015604;28;20570;-81
2022/08/07 06:50:32;;;;;;;1.95;0.80;;;;;;;;;;5016716;28;20531;-81
2022/08/07 06:53:19;;;;;;;1.45;0.60;;;;;;;;;;5016269;28;20080;-81
2022/08/07 06:56:05;;;;;;;1.98;0.82;;;;;;;;;;5016925;28;20037;-81
2022/08/07 06:58:51;;;;;;;1.42;0.63;;;;;;;;;;5029995;28;20103;-81
2022/08/07 07:01:36;;;;;;;2.33;0.68;;;;;;;;;;5028977;28;20033;-81
2022/08/07 07:04:22;;;;;;;2.85;0.77;;;;;;;;;;5003869;28;20420;-81
2022/08/07 07:07:08;;;;;;;1.42;0.60;;;;;;;;;;5030402;28;20044;-81
2022/08/07 07:09:54;;;;;;;2.78;0.70;;;;;;;;;;5028806;28;20037;-82
2022/08/07 07:12:48;;;;;;;1.55;0.57;;;;;;;;;;5029239;28;20049;-81
2022/08/07 07:15:35;;;;;;;1.85;0.70;;;;;;;;;;5028885;28;20042;-81
2022/08/07 07:18:24;;;;;;;2.35;0.93;;;;;;;;;;5015865;28;20467;-81
2022/08/07 07:21:20;;;;;;;1.65;0.70;;;;;;;;;;5015187;28;20045;-81
2022/08/07 07:24:08;;;;;;;1.20;0.50;;;;;;;;;;5029138;28;20045;-81
2022/08/07 07:26:54;;;;;;;2.97;0.90;;;;;;;;;;5016760;28;20419;-81
2022/08/07 07:29:44;;;;;;;2.58;0.90;;;;;;;;;;5030644;28;20120;-81
2022/08/07 07:32:30;;;;;;;1.27;0.55;;;;;;;;;;5028635;28;20073;-81
2022/08/07 07:35:16;;;;;;;2.45;0.70;;;;;;;;;;5015805;28;20052;-81
2022/08/07 07:38:02;;;;;;;1.50;0.52;;;;;;;;;;5028503;28;20419;-81
2022/08/07 07:40:48;;;;;;;2.00;0.85;;;;;;;;;;5028327;28;20029;-81
2022/08/07 07:43:33;;;;;;;0.98;0.57;;;;;;;;;;5003726;28;20053;-81
2022/08/07 07:46:21;;;;;;;2.95;1.05;;;;;;;;;;5031233;28;20416;-81
2022/08/07 07:49:07;;;;;;;1.45;0.60;;;;;;;;;;5028246;28;20496;-81
2022/08/07 07:51:53;;;;;;;1.23;0.63;;;;;;;;;;5028997;28;20033;-81
2022/08/07 07:54:40;;;;;;;2.10;0.80;;;;;;;;;;5034173;28;20041;-81
2022/08/07 07:57:25;;;;;;;1.50;0.70;;;;;;;;;;5032520;28;20068;-81
2022/08/07 08:00:12;;;;;;;2.13;0.70;;;;;;;;;;5021204;28;20543;-81
2022/08/07 08:03:00;;;;;;;1.65;0.65;;;;;;;;;;5033784;28;20044;-81
2022/08/07 08:05:46;;;;;;;1.52;0.50;;;;;;;;;;5021668;28;20649;-81
2022/08/07 08:08:32;;;;;;;1.77;0.85;;;;;;;;;;5021342;28;20415;-82
2022/08/07 08:11:18;;;;;;;2.03;0.52;;;;;;;;;;5018306;28;20033;-82
2022/08/07 08:14:04;;;;;;;2.03;0.90;;;;;;;;;;5019853;28;20064;-82
2022/08/07 08:16:50;;;;;;;1.00;0.50;;;;;;;;;;5031558;28;20102;-82
2022/08/07 08:19:35;;;;;;;1.58;0.50;;;;;;;;;;5032597;28;20045;-82
2022/08/07 08:28:30;;;;;;;1.05;0.47;;;;;;;;;;5034060;28;20084;-82
2022/08/07 08:31:24;;;;;;;1.15;0.50;;;;;;;;;;5018289;28;20659;-82
2022/08/07 08:34:13;;;;;;;1.27;0.68;;;;;;;;;;5031920;28;20055;-81
2022/08/07 08:36:59;;;;;;;1.25;0.60;;;;;;;;;;5033376;28;20037;-82
2022/08/07 08:39:45;;;;;;;1.58;0.45;;;;;;;;;;5019629;28;20033;-82
2022/08/07 08:42:37;;;;;;;2.30;0.77;;;;;;;;;;5031533;28;20420;-82
2022/08/07 08:46:04;;;;;;;1.48;0.75;;;;;;;;;;5007473;28;20029;-82
2022/08/07 08:48:53;;;;;;;1.42;0.50;;;;;;;;;;5034775;28;20048;-82
2022/08/07 08:51:44;;;;;;;2.33;1.00;;;;;;;;;;5031908;28;20042;-82
2022/08/07 08:54:33;;;;;;;1.73;0.60;;;;;;;;;;5019800;28;20033;-82
2022/08/07 08:57:26;;;;;;;1.33;0.45;;;;;;;;;;5021542;28;20081;-82
2022/08/07 09:00:12;;;;;;;1.38;0.63;;;;;;;;;;5018359;28;20405;-82
2022/08/07 09:03:01;;;;;;;0.63;0.35;;;;;;;;;;5031729;28;20049;-82
2022/08/07 09:05:53;;;;;;;1.40;0.50;;;;;;;;;;5031024;28;20069;-82
2022/08/07 09:09:00;;;;;;;1.25;0.60;;;;;;;;;;5030994;28;20041;-82
2022/08/07 09:11:52;;;;;;;1.38;0.70;;;;;;;;;;5032532;28;20040;-82
2022/08/07 09:14:44;;;;;;;0.95;0.38;;;;;;;;;;5031132;28;20041;-81
2022/08/07 09:17:37;;;;;;;2.05;0.88;;;;;;;;;;5018687;28;20048;-82
2022/08/07 09:20:38;;;;;;;2.83;0.60;;;;;;;;;;5030354;28;20041;-82
2022/08/07 09:23:30;;;;;;;0.80;0.35;;;;;;;;;;5031100;28;20037;-83
2022/08/07 09:26:21;;;;;;;0.85;0.40;;;;;;;;;;5031334;28;20124;-82
2022/08/07 09:29:19;;;;;;;1.73;0.40;;;;;;;;;;5018561;28;20042;-82
2022/08/07 09:32:27;;;;;;;2.10;0.40;;;;;;;;;;5030342;28;20037;-82
2022/08/07 09:35:19;;;;;;;1.55;0.50;;;;;;;;;;5030554;28;20040;-83
2022/08/07 09:38:10;;;;;;;;;;;;;;;;;;5019456;28;20100;-82
2022/08/07 09:41:02;;;;;;;1.35;0.28;;;;;;;;;;5032958;28;19913;-82
2022/08/07 09:44:03;;;;;;;0.90;0.23;;;;;;;;;;5006415;28;20029;-82
2022/08/07 09:47:14;;;;;;;1.45;0.40;;;;;;;;;;5031028;28;20124;-82
2022/08/07 09:50:25;;;;;;;1.55;0.55;;;;;;;;;;5030702;28;20041;-82
2022/08/07 09:53:10;;;;;;;0.63;0.35;;;;;;;;;;5031513;28;20122;-83
2022/08/07 09:56:24;;;;;;;0.55;0.20;;;;;;;;;;5005532;28;20045;-83
2022/08/07 09:59:49;;;;;;;0.90;0.38;;;;;;;;;;5030470;28;20041;-82
2022/08/07 10:02:56;;;;;;;0.75;0.32;;;;;;;;;;5030425;28;20041;-82
2022/08/07 10:06:17;;;;;;;0.77;0.28;;;;;;;;;;5029973;28;20033;-82
2022/08/07 10:09:44;;;;;;;1.33;0.30;;;;;;;;;;5006363;28;20554;-83
2022/08/07 10:12:42;;;;;;;0.52;0.20;;;;;;;;;;5030194;28;20064;-82
2022/08/07 10:15:57;;;;;;;1.00;0.30;;;;;;;;;;5030444;28;20124;-83
2022/08/07 10:19:04;;;;;;;1.63;0.43;;;;;;;;;;5026625;28;20128;-83
2022/08/07 10:22:08;;;;;;;1.50;0.63;;;;;;;;;;5019857;28;20029;-82
2022/08/07 10:25:12;;;;;;;0.55;0.20;;;;;;;;;;5030538;28;20515;-83
2022/08/07 10:28:11;;;;;;;0.80;0.20;;;;;;;;;;5031010;28;20029;-83
2022/08/07 10:31:20;;;;;;;0.50;0.25;;;;;;;;;;5030025;28;20048;-83
2022/08/07 10:34:37;;;;;;;0.98;0.30;;;;;;;;;;5020001;28;20978;-82
2022/08/07 10:37:25;;;;;;;0.73;0.20;;;;;;;;;;5030066;28;20079;-83
2022/08/07 10:40:24;;;;;;;0.68;0.20;;;;;;;;;;5030089;28;20589;-82
2022/08/07 10:43:23;;;;;;;0.63;0.20;;;;;;;;;;5018242;28;20045;-82
2022/08/07 10:46:14;;;;;;;0.80;0.22;;;;;;;;;;5029824;28;20040;-83
2022/08/07 10:49:13;;;;;;;0.65;0.20;;;;;;;;;;5030454;28;20091;-82
2022/08/07 10:52:05;;;;;;;1.27;0.10;;;;;;;;;;5030420;28;20037;-82
2022/08/07 10:54:53;;;;;;;;;;;;;;;;;;5030737;28;20076;-83
2022/08/07 10:57:54;;;;;;;0.75;0.32;;;;;;;;;;5031776;28;20290;-83
2022/08/07 11:00:49;;;;;;;0.60;0.20;;;;;;;;;;5018160;28;20054;-83
2022/08/07 11:03:41;;;;;;;0.57;0.20;;;;;;;;;;5030319;28;20081;-83
2022/08/07 11:06:45;;;;;;;0.85;0.13;;;;;;;;;;5031790;28;20033;-83
2022/08/07 11:09:35;;;;;;;1.25;0.30;;;;;;;;;;5031844;28;20103;-82
2022/08/07 11:12:43;;;;;;;0.55;0.10;;;;;;;;;;5029357;28;20037;-83
2022/08/07 11:15:32;;;;;;;0.77;0.43;;;;;;;;;;5020145;28;20037;-83
2022/08/07 11:18:28;;;;;;;0.43;0.28;;;;;;;;;;5016819;28;20042;-82
2022/08/07 11:21:28;;;;;;;0.60;0.20;;;;;;;;;;5016321;28;20049;-83
2022/08/07 11:24:28;;;;;;;1.08;0.40;;;;;;;;;;5030010;28;20030;-83
2022/08/07 11:27:25;;;;;;;1.60;0.25;;;;;;;;;;5029396;28;20176;-83
2022/08/07 11:30:16;;;;;;;0.52;0.10;;;;;;;;;;5028972;28;20583;-83
2022/08/07 11:33:11;;;;;;;0.95;0.13;;;;;;;;;;5016598;28;20095;-83
2022/08/07 11:35:59;;;;;;;0.25;0.10;;;;;;;;;;5029118;28;20064;-83
2022/08/07 11:38:57;;;;;;;0.85;0.13;;;;;;;;;;5029139;28;20351;-82
2022/08/07 11:42:19;;;;;;;1.00;0.32;;;;;;;;;;5030209;28;20045;-83
2022/08/07 11:45:05;;;;;;;;;;;;;;;;;;5031804;28;20038;-83
2022/08/07 11:48:39;;;;;;;0.40;0.20;;;;;;;;;;5031042;28;19932;-82
2022/08/07 11:52:02;;;;;;;0.47;0.20;;;;;;;;;;5025540;28;20073;-83
2022/08/07 11:55:03;;;;;;;1.98;0.30;;;;;;;;;;5019017;28;20423;-83
2022/08/07 11:57:58;;;;;;;0.28;0.15;;;;;;;;;;5016102;28;20043;-83
2022/08/07 12:00:57;;;;;;;0.52;0.10;;;;;;;;;;5030070;28;20052;-83
2022/08/07 12:03:45;;;;;;;0.50;0.17;;;;;;;;;;5029669;28;20037;-82
2022/08/07 12:06:44;;;;;;;0.43;0.20;;;;;;;;;;5029263;28;20088;-83
2022/08/07 12:09:34;;;;;;;0.73;0.20;;;;;;;;;;5029914;28;20037;-83
2022/08/07 12:12:25;;;;;;;0.50;0.10;;;;;;;;;;5028578;28;20037;-83
2022/08/07 12:15:22;;;;;;;0.47;0.20;;;;;;;;;;5028708;28;20511;-83
2022/08/07 12:18:22;;;;;;;0.32;0.10;;;;;;;;;;5030054;28;20487;-83
2022/08/07 12:21:44;;;;;;;0.65;0.20;;;;;;;;;;5015649;28;20129;-83
2022/08/07 12:24:36;;;;;;;0.70;0.17;;;;;;;;;;5018256;28;20416;-83
2022/08/07 12:27:25;;;;;;;0.75;0.30;;;;;;;;;;5016976;28;20049;-83
2022/08/07 12:30:11;;;;;;;0.50;0.10;;;;;;;;;;5002731;28;20153;-83
2022/08/07 12:33:04;;;;;;;0.30;0.10;;;;;;;;;;5016238;28;20128;-82
2022/08/07 12:35:51;;;;;;;0.45;0.10;;;;;;;;;;5016242;28;20520;-83
2022/08/07 12:38:37;;;;;;;0.60;0.22;;;;;;;;;;5029455;28;20037;-83
2022/08/07 12:41:24;;;;;;;0.20;0.10;;;;;;;;;;5020320;28;20542;-84
2022/08/07 12:44:10;;;;;;;0.30;0.20;;;;;;;;;;5033225;28;20037;-83
2022/08/07 12:47:02;;;;;;;0.52;0.10;;;;;;;;;;5033249;28;20411;-83
2022/08/07 12:50:12;;;;;;;0.15;0.08;;;;;;;;;;5033234;28;20183;-83
2022/08/07 12:53:12;;;;;;;0.85;0.30;;;;;;;;;;5032264;28;20038;-83
2022/08/07 12:56:03;;;;;;;0.20;0.10;;;;;;;;;;5018659;28;20048;-83
2022/08/07 12:58:49;;;;;;;0.52;0.15;;;;;;;;;;5031409;28;20516;-83
2022/08/07 13:01:41;;;;;;;0.32;0.10;;;;;;;;;;5019136;28;20052;-83
2022/08/07 13:04:45;;;;;;;;;;;;;;;;;;5019591;28;20060;-83
2022/08/07 13:08:02;;;;;;;0.40;0.10;;;;;;;;;;5033105;28;19917;-83
2022/08/07 13:11:09;;;;;;;0.88;0.25;;;;;;;;;;5031534;28;20038;-85
2022/08/07 13:14:02;;;;;;;0.52;0.20;;;;;;;;;;5032624;28;20397;-83
2022/08/07 13:16:55;;;;;;;0.47;0.10;;;;;;;;;;5032789;28;20044;-82
2022/08/07 13:20:01;;;;;;;0.60;0.20;;;;;;;;;;5019261;28;20033;-83
2022/08/07 13:23:14;;;;;;;0.88;0.30;;;;;;;;;;5031838;28;20041;-83
2022/08/07 13:26:04;;;;;;;0.30;0.20;;;;;;;;;;5030895;28;20038;-82
2022/08/07 13:28:57;;;;;;;0.35;0.10;;;;;;;;;;5031414;28;20050;-83
2022/08/07 13:32:03;;;;;;;0.40;0.20;;;;;;;;;;5031899;28;20045;-83
2022/08/07 13:35:00;;;;;;;0.55;0.10;;;;;;;;;;5018591;28;20080;-82
2022/08/07 13:37:55;;;;;;;0.55;0.20;;;;;;;;;;5031113;28;20184;-82
2022/08/07 13:41:03;;;;;;;0.70;0.22;;;;;;;;;;5031017;28;20527;-83
2022/08/07 13:43:50;;;;;;;1.05;0.22;;;;;;;;;;5033588;28;20034;-83
2022/08/07 13:46:40;;;;;;;0.90;0.30;;;;;;;;;;5020155;28;20055;-82
2022/08/07 13:49:34;;;;;;;0.77;0.22;;;;;;;;;;5018690;28;20030;-83
2022/08/07 13:52:20;;;;;;;0.40;0.10;;;;;;;;;;5005041;28;20411;-82
2022/08/07 13:55:16;;;;;;;0.65;0.22;;;;;;;;;;5019272;28;20046;-83
2022/08/07 14:01:38;;;;;;;0.20;0.10;;;;;;;;;;5038816;28;20068;-82
2022/08/07 14:04:24;;;;;;;0.22;0.10;;;;;;;;;;5005936;28;20503;-82
2022/08/07 14:07:10;;;;;;;1.00;0.30;;;;;;;;;;5031577;28;20029;-82
2022/08/07 14:09:58;;;;;;;0.70;0.30;;;;;;;;;;5017032;28;20033;-82
2022/08/07 14:12:50;;;;;;;0.80;0.25;;;;;;;;;;5018057;28;20099;-83
2022/08/07 14:15:38;;;;;;;0.60;0.20;;;;;;;;;;5030480;28;20029;-83
2022/08/07 14:18:30;;;;;;;0.30;0.10;;;;;;;;;;5031136;28;20045;-83
2022/08/07 14:21:25;;;;;;;0.40;0.20;;;;;;;;;;5031973;28;20044;-82
2022/08/07 14:24:14;;;;;;;0.28;0.10;;;;;;;;;;5030989;28;20060;-83
2022/08/07 14:27:03;;;;;;;0.15;0.10;;;;;;;;;;5018360;28;20046;-82
2022/08/07 14:29:52;;;;;;;0.88;0.10;;;;;;;;;;5030681;28;20128;-82
2022/08/07 14:32:50;;;;;;;0.28;0.10;;;;;;;;;;5031109;28;20042;-82
2022/08/07 14:35:36;;;;;;;1.48;0.30;;;;;;;;;;5029648;28;20038;-83
2022/08/07 14:38:23;;;;;;;0.30;0.10;;;;;;;;;;5031286;28;20042;-83
2022/08/07 14:41:10;;;;;;;1.25;0.15;;;;;;;;;;5030531;28;20044;-82
2022/08/07 14:43:55;;;;;;;0.75;0.20;;;;;;;;;;5031178;28;20547;-82
2022/08/07 14:46:41;;;;;;;0.60;0.20;;;;;;;;;;5029398;28;20045;-83
2022/08/07 14:49:28;;;;;;;0.52;0.20;;;;;;;;;;5028952;28;20049;-82
2022/08/07 14:52:14;;;;;;;0.65;0.20;;;;;;;;;;5030376;28;20033;-83
2022/08/07 14:55:00;;;;;;;1.13;0.40;;;;;;;;;;5016016;28;20033;-82
2022/08/07 14:57:47;;;;;;;0.30;0.20;;;;;;;;;;5029284;28;20076;-83
2022/08/07 15:00:33;;;;;;;0.90;0.22;;;;;;;;;;5018205;28;20052;-82
2022/08/07 15:03:22;;;;;;;0.73;0.30;;;;;;;;;;5001584;28;20036;-82
2022/08/07 15:06:08;;;;;;;0.32;0.15;;;;;;;;;;5004551;28;20037;-81
2022/08/07 15:08:54;;;;;;;0.70;0.20;;;;;;;;;;5029105;28;20052;-81
2022/08/07 15:11:42;;;;;;;0.30;0.15;;;;;;;;;;5017055;28;20124;-82
2022/08/07 15:14:28;;;;;;;0.75;0.17;;;;;;;;;;5016281;28;20072;-82
2022/08/07 15:17:15;;;;;;;0.50;0.20;;;;;;;;;;5030489;28;20048;-82
2022/08/07 15:20:06;;;;;;;0.30;0.10;;;;;;;;;;5016362;28;20052;-82
2022/08/07 15:22:52;;;;;;;0.73;0.15;;;;;;;;;;5030546;28;20099;-83
2022/08/07 15:25:38;;;;;;;1.25;0.30;;;;;;;;;;5028835;28;20030;-82
2022/08/07 15:28:27;;;;;;;0.47;0.10;;;;;;;;;;5004566;28;20038;-82
2022/08/07 15:31:13;;;;;;;0.57;0.20;;;;;;;;;;5015942;28;20045;-82
2022/08/07 15:33:59;;;;;;;0.60;0.20;;;;;;;;;;5004323;28;20033;-82
2022/08/07 15:36:45;;;;;;;0.73;0.28;;;;;;;;;;5004194;28;20037;-81
2022/08/07 15:39:44;;;;;;;0.47;0.20;;;;;;;;;;5029751;28;20037;-82
2022/08/07 15:42:34;;;;;;;0.80;0.20;;;;;;;;;;5016074;28;20507;-82
2022/08/07 15:45:25;;;;;;;0.47;0.20;;;;;;;;;;5029270;28;20120;-82
2022/08/07 15:48:11;;;;;;;1.05;0.20;;;;;;;;;;5029201;28;20507;-82
2022/08/07 15:50:58;;;;;;;0.63;0.20;;;;;;;;;;5028716;28;20527;-82
2022/08/07 15:53:52;;;;;;;1.33;0.40;;;;;;;;;;5029651;28;20060;-82
2022/08/07 15:56:40;;;;;;;0.40;0.10;;;;;;;;;;5029573;28;20380;-82
2022/08/07 15:59:26;;;;;;;0.80;0.30;;;;;;;;;;5028639;28;20103;-82
2022/08/07 16:02:13;;;;;;;0.50;0.20;;;;;;;;;;5003862;28;20045;-82
2022/08/07 16:05:02;;;;;;;0.93;0.25;;;;;;;;;;5015075;28;20041;-81
2022/08/07 16:07:50;;;;;;;1.17;0.30;;;;;;;;;;5029794;28;20171;-82
2022/08/07 16:10:36;;;;;;;0.47;0.32;;;;;;;;;;5028336;28;20038;-82
2022/08/07 16:13:21;;;;;;;0.77;0.32;;;;;;;;;;5028689;28;20037;-81
2022/08/07 16:16:14;;;;;;;0.50;0.10;;;;;;;;;;5033021;28;20076;-82
2022/08/07 16:19:21;;;;;;;0.20;0.10;;;;;;;;;;5020138;28;20038;-81
2022/08/07 16:22:25;;;;;;;0.70;0.20;;;;;;;;;;5032036;28;20049;-81
2022/08/07 16:25:14;;;;;;;0.77;0.20;;;;;;;;;;5032671;28;20041;-82
2022/08/07 16:28:23;;;;;;;0.10;0.10;;;;;;;;;;5020169;28;20546;-82